createdAt,value
2024-01-24T00:02:31.681Z,3.61
2024-01-24T00:07:34.692Z,3.56
2024-01-24T00:12:37.670Z,3.53
2024-01-24T00:17:41.490Z,3.48
2024-01-24T00:22:44.339Z,3.46
2024-01-24T00:27:47.765Z,3.42
2024-01-24T00:32:50.663Z,3.40
2024-01-24T00:37:53.419Z,3.34
2024-01-24T00:42:56.181Z,3.27
2024-01-24T00:47:59.121Z,3.21
2024-01-24T00:53:05.468Z,3.16
2024-01-24T00:58:08.760Z,3.12
2024-01-24T01:03:11.601Z,3.08
2024-01-24T01:08:14.684Z,3.07
2024-01-24T01:13:17.608Z,3.09
2024-01-24T01:18:20.400Z,3.08
2024-01-24T01:23:23.372Z,3.06
2024-01-24T01:28:26.129Z,3.03
2024-01-24T01:33:28.995Z,2.99
2024-01-24T01:38:32.039Z,2.94
2024-01-24T01:43:34.834Z,2.90
2024-01-24T01:48:38.895Z,2.84
2024-01-24T01:53:41.918Z,2.81
2024-01-24T01:58:46.313Z,2.76
2024-01-24T02:03:49.389Z,2.75
2024-01-24T02:08:52.853Z,2.73
2024-01-24T02:14:00.445Z,2.74
2024-01-24T02:19:03.834Z,2.74
2024-01-24T02:24:11.701Z,2.73
2024-01-24T02:29:15.020Z,2.73
2024-01-24T02:34:17.935Z,2.75
2024-01-24T02:39:20.908Z,2.76
2024-01-24T02:44:23.866Z,2.73
2024-01-24T02:49:26.702Z,2.73
2024-01-24T02:54:30.545Z,2.72
2024-01-24T02:59:33.583Z,2.73
2024-01-24T03:04:36.509Z,2.73
2024-01-24T03:09:39.409Z,2.73
2024-01-24T03:14:42.330Z,2.73
2024-01-24T03:19:45.733Z,2.75
2024-01-24T03:24:48.788Z,2.76
2024-01-24T03:29:51.614Z,2.78
2024-01-24T03:34:55.772Z,2.80
2024-01-24T03:39:58.808Z,2.82
2024-01-24T03:45:02.009Z,2.85
2024-01-24T03:50:05.433Z,2.85
2024-01-24T03:55:08.963Z,2.86
2024-01-24T04:00:12.887Z,2.84
2024-01-24T04:05:16.277Z,2.85
2024-01-24T04:10:19.057Z,2.84
2024-01-24T04:15:21.885Z,2.87
2024-01-24T04:20:24.662Z,2.87
2024-01-24T04:25:27.589Z,2.89
2024-01-24T04:30:30.677Z,2.91
2024-01-24T04:35:33.605Z,2.93
2024-01-24T04:40:36.366Z,2.94
2024-01-24T04:45:39.120Z,2.96
2024-01-24T04:50:42.103Z,2.95
2024-01-24T04:55:45.511Z,2.91
2024-01-24T05:00:49.519Z,2.81
2024-01-24T05:06:00.985Z,2.72
2024-01-24T05:11:07.887Z,2.65
2024-01-24T05:16:10.866Z,2.58
2024-01-24T05:21:13.692Z,2.55
2024-01-24T05:26:16.741Z,2.51
2024-01-24T05:31:19.579Z,2.48
2024-01-24T05:36:22.898Z,2.44
2024-01-24T05:41:26.111Z,2.40
2024-01-24T05:46:28.972Z,2.33
2024-01-24T05:51:31.842Z,2.26
2024-01-24T05:56:34.716Z,2.21
2024-01-24T06:01:37.984Z,2.16
2024-01-24T06:06:41.736Z,2.12
2024-01-24T06:16:47.625Z,2.09
2024-01-24T06:21:50.562Z,2.12
2024-01-24T06:26:53.855Z,2.15
2024-01-24T06:31:58.429Z,2.20
2024-01-24T06:37:01.326Z,2.28
2024-01-24T06:42:04.397Z,2.35
2024-01-24T06:47:07.406Z,2.42
2024-01-24T06:52:10.206Z,2.48
2024-01-24T06:57:13.108Z,2.50
2024-01-24T07:02:15.972Z,2.51
2024-01-24T07:07:19.011Z,2.53
2024-01-24T07:12:22.185Z,2.54
2024-01-24T07:17:25.258Z,2.56
2024-01-24T07:22:28.876Z,2.58
2024-01-24T07:27:33.094Z,2.59
2024-01-24T07:32:40.715Z,2.60
2024-01-24T07:37:45.660Z,2.62
2024-01-24T07:42:55.400Z,2.65
2024-01-24T07:47:59.461Z,2.67
2024-01-24T07:53:02.379Z,2.69
2024-01-24T07:58:05.516Z,2.70
2024-01-24T08:03:09.294Z,2.72
2024-01-24T08:08:12.500Z,2.75
2024-01-24T08:13:15.720Z,2.78
2024-01-24T08:18:19.195Z,2.82
2024-01-24T08:23:26.522Z,2.86
2024-01-24T08:28:31.894Z,2.89
2024-01-24T08:33:34.952Z,2.92
2024-01-24T08:38:38.365Z,2.96
2024-01-24T08:43:41.364Z,3.00
2024-01-24T08:48:44.702Z,3.04
2024-01-24T08:53:47.848Z,3.07
2024-01-24T08:58:50.869Z,3.13
2024-01-24T09:03:54.898Z,3.18
2024-01-24T09:08:57.959Z,3.24
2024-01-24T09:14:00.938Z,3.34
2024-01-24T09:19:05.239Z,3.42
2024-01-24T09:24:08.883Z,3.53
2024-01-24T09:29:13.777Z,3.63
2024-01-24T09:34:18.189Z,3.73
2024-01-24T09:39:21.367Z,3.84
2024-01-24T09:44:26.417Z,3.97
2024-01-24T09:49:32.441Z,4.10
2024-01-24T09:54:36.456Z,4.22
2024-01-24T09:59:39.563Z,4.36
2024-01-24T10:04:45.450Z,4.51
2024-01-24T10:09:49.259Z,4.61
2024-01-24T10:14:53.171Z,4.69
2024-01-24T10:19:56.261Z,4.79
2024-01-24T10:24:59.814Z,4.89
2024-01-24T10:30:03.318Z,5.00
2024-01-24T10:35:07.805Z,5.12
2024-01-24T10:40:16.267Z,5.24
2024-01-24T10:45:21.556Z,5.35
2024-01-24T10:50:26.033Z,5.46
2024-01-24T10:55:31.267Z,5.55
2024-01-24T11:00:34.916Z,5.65
2024-01-24T11:05:55.755Z,5.74
2024-01-24T11:11:04.631Z,5.86
2024-01-24T11:16:32.834Z,5.93
2024-01-24T11:21:36.732Z,5.99
2024-01-24T11:26:39.970Z,6.09
2024-01-24T11:31:44.953Z,6.18
2024-01-24T11:36:52.821Z,6.29
2024-01-24T11:42:25.240Z,6.38
2024-01-24T11:47:28.535Z,6.43
2024-01-24T11:52:31.426Z,6.48
2024-01-24T11:57:34.681Z,6.61
2024-01-24T12:02:38.129Z,6.79
2024-01-24T12:07:41.061Z,6.81
2024-01-24T12:12:44.879Z,6.76
2024-01-24T12:17:47.788Z,6.71
2024-01-24T12:22:50.709Z,6.73
2024-01-24T12:27:54.225Z,6.92
2024-01-24T12:32:58.935Z,7.19
2024-01-24T12:38:04.036Z,7.48
2024-01-24T12:43:07.133Z,7.62
2024-01-24T12:48:12.505Z,7.80
2024-01-24T12:53:15.681Z,8.03
2024-01-24T12:58:19.102Z,7.98
2024-01-24T13:03:23.463Z,7.83
2024-01-24T13:08:27.686Z,7.99
2024-01-24T13:13:30.902Z,8.34
2024-01-24T13:18:34.031Z,8.39
2024-01-24T13:23:36.931Z,8.30
2024-01-24T13:28:41.126Z,8.48
2024-01-24T13:33:46.496Z,8.50
2024-01-24T13:38:50.249Z,8.50
2024-01-24T13:43:53.954Z,8.27
2024-01-24T13:48:57.202Z,8.20
2024-01-24T13:54:00.219Z,8.05
2024-01-24T13:59:03.437Z,7.93
2024-01-24T14:04:06.795Z,8.01
2024-01-24T14:09:11.713Z,8.01
2024-01-24T14:14:14.673Z,7.90
2024-01-24T14:19:17.687Z,7.79
2024-01-24T14:24:21.613Z,7.64
2024-01-24T14:29:24.949Z,7.44
2024-01-24T14:34:28.012Z,7.30
2024-01-24T14:39:31.156Z,7.16
2024-01-24T14:44:34.049Z,7.07
2024-01-24T14:49:36.958Z,6.96
2024-01-24T14:54:40.866Z,6.80
2024-01-24T14:59:44.090Z,6.68
2024-01-24T15:04:46.926Z,6.62
2024-01-24T15:09:50.475Z,6.58
2024-01-24T15:14:53.523Z,6.53
2024-01-24T15:19:57.053Z,6.50
2024-01-24T15:25:03.147Z,6.54
2024-01-24T15:30:07.696Z,6.56
2024-01-24T15:35:11.392Z,6.50
2024-01-24T15:40:17.920Z,6.49
2024-01-24T15:45:26.113Z,6.48
2024-01-24T15:50:29.307Z,6.41
2024-01-24T15:55:32.998Z,6.39
2024-01-24T16:00:36.079Z,6.38
2024-01-24T16:05:47.287Z,6.35
2024-01-24T16:10:50.557Z,6.31
2024-01-24T16:15:53.805Z,6.29
2024-01-24T16:20:56.760Z,6.24
2024-01-24T16:26:00.052Z,6.18
2024-01-24T16:31:04.036Z,6.20
2024-01-24T16:36:07.423Z,6.23
2024-01-24T16:41:11.877Z,6.24
2024-01-24T16:46:15.743Z,6.25
2024-01-24T16:51:18.695Z,6.24
2024-01-24T16:56:21.595Z,6.21
2024-01-24T17:01:24.634Z,6.18
2024-01-24T17:06:27.651Z,6.18
2024-01-24T17:11:30.645Z,6.27
2024-01-24T17:16:33.626Z,6.27
2024-01-24T17:21:36.903Z,6.20
2024-01-24T17:26:40.154Z,6.18
2024-01-24T17:31:43.045Z,6.19
2024-01-24T17:36:45.797Z,6.21
2024-01-24T17:41:49.346Z,6.25
2024-01-24T17:46:55.179Z,6.27
2024-01-24T17:51:58.200Z,6.28
2024-01-24T17:57:01.279Z,6.27
2024-01-24T18:02:04.416Z,6.20
2024-01-24T18:07:07.586Z,6.11
2024-01-24T18:12:11.406Z,6.08
2024-01-24T18:17:14.316Z,6.04
2024-01-24T18:22:17.249Z,6.01
2024-01-24T18:27:20.109Z,5.99
2024-01-24T18:32:22.957Z,5.95
2024-01-24T18:37:26.208Z,5.94
2024-01-24T18:42:29.177Z,5.91
2024-01-24T18:47:32.419Z,5.87
2024-01-24T18:52:35.662Z,5.83
2024-01-24T18:57:39.326Z,5.84
2024-01-24T19:02:42.750Z,5.79
2024-01-24T19:07:46.239Z,5.74
2024-01-24T19:12:49.582Z,5.72
2024-01-24T19:17:52.782Z,5.73
2024-01-24T19:22:57.397Z,5.71
2024-01-24T19:28:00.457Z,5.71
2024-01-24T19:33:03.787Z,5.71
2024-01-24T19:38:06.857Z,5.71
2024-01-24T19:43:09.989Z,5.71
2024-01-24T19:48:14.627Z,5.71
2024-01-24T19:53:21.109Z,5.74
2024-01-24T19:58:30.213Z,5.78
2024-01-24T20:03:33.336Z,5.84
2024-01-24T20:08:36.604Z,5.82
2024-01-24T20:13:39.529Z,5.84
2024-01-24T20:18:42.435Z,5.84
2024-01-24T20:23:45.457Z,5.83
2024-01-24T20:28:48.336Z,5.81
2024-01-24T20:33:51.449Z,5.81
2024-01-24T20:38:54.502Z,5.83
2024-01-24T20:43:57.385Z,5.79
2024-01-24T20:49:00.733Z,5.72
2024-01-24T20:54:08.125Z,5.65
2024-01-24T20:59:11.802Z,5.59
2024-01-24T21:04:15.448Z,5.56
2024-01-24T21:09:18.525Z,5.52
2024-01-24T21:14:21.561Z,5.51
2024-01-24T21:19:25.813Z,5.50
2024-01-24T21:24:28.993Z,5.51
2024-01-24T21:29:31.908Z,5.51
2024-01-24T21:34:34.923Z,5.55
2024-01-24T21:39:37.928Z,5.58
2024-01-24T21:44:40.813Z,5.61
2024-01-24T21:49:43.853Z,5.61
2024-01-24T21:54:52.515Z,5.57
2024-01-24T21:59:55.562Z,5.59
2024-01-24T22:04:58.390Z,5.66
2024-01-24T22:10:01.752Z,5.69
2024-01-24T22:15:09.401Z,5.70
2024-01-24T22:20:12.462Z,5.71
2024-01-24T22:25:15.555Z,5.75
2024-01-24T22:30:19.364Z,5.80
2024-01-24T22:35:22.624Z,5.84
2024-01-24T22:40:27.018Z,5.85
2024-01-24T22:45:29.943Z,5.77
2024-01-24T22:50:34.182Z,5.68
2024-01-24T22:55:37.536Z,5.62
2024-01-24T23:00:40.432Z,5.61
2024-01-24T23:05:43.426Z,5.62
2024-01-24T23:10:46.348Z,5.65
2024-01-24T23:15:49.291Z,5.64
2024-01-24T23:20:53.830Z,5.63
2024-01-24T23:25:56.727Z,5.58
2024-01-24T23:30:59.619Z,5.53
2024-01-24T23:36:05.445Z,5.52
2024-01-24T23:41:08.320Z,5.46
2024-01-24T23:46:11.680Z,5.43
2024-01-24T23:51:15.211Z,5.43
2024-01-24T23:56:18.318Z,5.43
